createdAt,value
2023-03-23T15:58:40.101Z,15.14
2023-03-23T16:01:15.830Z,15.13
2023-03-23T16:03:48.933Z,15.05
2023-03-23T16:06:25.174Z,15.05
2023-03-23T16:08:55.523Z,15.04
2023-03-23T16:11:31.293Z,15.00
2023-03-23T16:14:01.060Z,14.98
2023-03-23T16:16:35.669Z,14.94
2023-03-23T16:19:05.720Z,14.92
2023-03-23T16:21:35.696Z,14.83
2023-03-23T16:24:04.983Z,14.76
2023-03-23T16:26:36.384Z,14.72
2023-03-23T16:29:17.201Z,14.69
2023-03-23T16:31:53.801Z,14.72
2023-03-23T16:34:22.849Z,14.62
2023-03-23T16:36:52.009Z,14.56
2023-03-23T16:39:21.269Z,14.49
2023-03-23T16:41:54.852Z,14.46
2023-03-23T16:44:24.017Z,14.42
2023-03-23T16:46:53.100Z,14.38
2023-03-23T16:49:23.586Z,14.41
2023-03-23T16:51:54.987Z,14.30
2023-03-23T16:54:24.305Z,14.29
2023-03-23T16:56:55.074Z,13.96
2023-03-23T16:59:26.500Z,13.60
2023-03-23T17:02:03.217Z,13.28
2023-03-23T17:04:33.219Z,13.07
2023-03-23T17:07:02.730Z,12.83
2023-03-23T17:09:31.789Z,12.64
2023-03-23T17:12:02.756Z,12.40
2023-03-23T17:14:33.007Z,12.31
2023-03-23T17:17:02.546Z,12.10
2023-03-23T17:19:31.833Z,11.92
2023-03-23T17:22:01.575Z,11.77
2023-03-23T17:24:30.655Z,11.60
2023-03-23T17:27:01.572Z,11.45
2023-03-23T17:29:30.916Z,11.45
2023-03-23T17:32:00.034Z,11.35
2023-03-23T17:34:31.213Z,11.36
2023-03-23T17:37:00.704Z,11.17
2023-03-23T17:39:31.747Z,11.16
2023-03-23T17:42:15.356Z,11.13
2023-03-23T17:44:45.112Z,11.03
2023-03-23T17:47:14.826Z,10.98
2023-03-23T17:49:43.972Z,10.95
2023-03-23T17:52:13.921Z,10.89
2023-03-23T17:54:44.170Z,10.85
2023-03-23T17:57:15.628Z,10.83
2023-03-23T17:59:44.801Z,10.79
2023-03-23T18:02:15.102Z,10.75
2023-03-23T18:04:44.448Z,10.69
2023-03-23T18:07:14.595Z,10.63
2023-03-23T18:09:45.734Z,10.64
2023-03-23T18:12:18.143Z,10.57
2023-03-23T18:14:47.607Z,10.53
2023-03-23T18:17:16.937Z,10.48
2023-03-23T18:19:47.382Z,10.46
2023-03-23T18:22:16.962Z,10.39
2023-03-23T18:24:47.330Z,10.38
2023-03-23T18:27:18.929Z,10.29
2023-03-23T18:29:49.105Z,10.32
2023-03-23T18:32:19.876Z,10.23
2023-03-23T18:34:50.438Z,10.24
2023-03-23T18:37:24.240Z,10.32
2023-03-23T18:39:56.432Z,10.25
2023-03-23T18:42:30.187Z,10.20
2023-03-23T18:45:05.468Z,10.20
2023-03-23T18:47:37.775Z,10.20
2023-03-23T18:50:12.123Z,10.26
2023-03-23T18:52:47.014Z,10.27
2023-03-23T18:55:47.498Z,10.24
2023-03-23T18:58:23.242Z,10.16
2023-03-23T19:00:59.619Z,10.14
2023-03-23T19:03:31.015Z,10.19
2023-03-23T19:06:08.552Z,10.20
2023-03-23T19:08:42.318Z,10.19
2023-03-23T19:11:19.508Z,10.19
2023-03-23T19:14:01.614Z,10.17
2023-03-23T19:16:39.379Z,10.15
2023-03-23T19:19:12.456Z,10.16
2023-03-23T19:21:47.056Z,10.16
2023-03-23T19:24:19.243Z,10.16
2023-03-23T19:26:56.471Z,10.11
2023-03-23T19:29:27.693Z,10.09
2023-03-23T19:31:59.728Z,10.09
2023-03-23T19:34:30.751Z,10.18
2023-03-23T19:37:05.733Z,10.12
2023-03-23T19:39:37.114Z,10.13
2023-03-23T19:42:09.058Z,10.21
2023-03-23T19:44:42.407Z,10.20
2023-03-23T19:47:12.845Z,10.20
2023-03-23T19:49:42.875Z,10.19
2023-03-23T19:52:14.420Z,10.23
2023-03-23T19:54:48.042Z,10.23
2023-03-23T19:57:20.286Z,10.19
2023-03-23T19:59:53.460Z,10.18
2023-03-23T20:02:25.026Z,10.20
2023-03-23T20:04:56.643Z,10.20
2023-03-23T20:07:29.221Z,10.25
2023-03-23T20:12:28.452Z,10.37
2023-03-23T20:14:59.184Z,10.40
2023-03-23T20:17:28.985Z,10.37
2023-03-23T20:20:01.466Z,10.39
2023-03-23T20:22:33.392Z,10.42
2023-03-23T20:25:03.676Z,10.35
2023-03-23T20:27:34.214Z,10.29
2023-03-23T20:30:09.382Z,10.33
2023-03-23T20:32:42.909Z,10.31
2023-03-23T20:35:14.806Z,10.33
2023-03-23T20:37:46.313Z,10.26
2023-03-23T20:40:15.624Z,10.21
2023-03-23T20:42:48.532Z,10.20
2023-03-23T20:45:20.459Z,10.23
2023-03-23T20:47:52.855Z,10.17
2023-03-23T20:50:24.882Z,10.12
2023-03-23T20:52:55.181Z,10.12
2023-03-23T20:55:25.652Z,10.10
2023-03-23T20:57:59.828Z,10.05
2023-03-23T21:00:37.803Z,10.02
2023-03-23T21:03:11.768Z,9.96
2023-03-23T21:05:42.952Z,9.92
2023-03-23T21:08:13.432Z,9.90
2023-03-23T21:10:45.160Z,9.88
2023-03-23T21:13:15.227Z,9.84
2023-03-23T21:15:50.018Z,9.79
2023-03-23T21:18:22.177Z,9.81
2023-03-23T21:20:53.498Z,9.73
2023-03-23T21:23:26.860Z,9.66
2023-03-23T21:26:02.497Z,9.60
2023-03-23T21:28:34.183Z,9.58
2023-03-23T21:31:09.075Z,9.54
2023-03-23T21:33:38.666Z,9.48
2023-03-23T21:36:11.705Z,9.48
2023-03-23T21:38:43.145Z,9.44
2023-03-23T21:41:15.519Z,9.41
2023-03-23T21:43:46.152Z,9.36
2023-03-23T21:46:21.157Z,9.31
2023-03-23T21:48:52.482Z,9.28
2023-03-23T21:51:27.902Z,9.23
2023-03-23T21:53:58.266Z,9.21
2023-03-23T21:56:31.971Z,9.17
2023-03-23T21:59:03.796Z,9.14
2023-03-23T22:01:41.378Z,9.09
2023-03-23T22:04:11.421Z,9.06
2023-03-23T22:06:42.441Z,9.02
2023-03-23T22:09:13.584Z,8.99
2023-03-23T22:11:46.874Z,8.91
2023-03-23T22:14:16.482Z,8.88
2023-03-23T22:16:48.776Z,8.84
2023-03-23T22:19:18.538Z,8.83
2023-03-23T22:21:47.710Z,8.79
2023-03-23T22:24:17.700Z,8.79
2023-03-23T22:26:47.855Z,8.74
2023-03-23T22:29:18.039Z,8.76
2023-03-23T22:31:49.211Z,8.74
2023-03-23T22:34:18.710Z,8.72
2023-03-23T22:36:47.882Z,8.71
2023-03-23T22:39:17.246Z,8.71
2023-03-23T22:41:46.956Z,8.74
2023-03-23T22:44:18.324Z,8.81
2023-03-23T22:46:49.426Z,8.80
2023-03-23T22:49:18.958Z,8.87
2023-03-23T22:51:48.439Z,8.88
2023-03-23T22:54:17.843Z,8.94
2023-03-23T22:56:47.351Z,8.92
2023-03-23T22:59:16.956Z,8.90
2023-03-23T23:01:47.175Z,8.96
2023-03-23T23:04:17.888Z,9.01
2023-03-23T23:06:47.597Z,9.03
2023-03-23T23:09:16.782Z,9.02
2023-03-23T23:11:46.156Z,9.06
2023-03-23T23:14:15.445Z,9.01
2023-03-23T23:16:44.948Z,8.98
2023-03-23T23:19:14.542Z,8.99
2023-03-23T23:21:45.701Z,9.02
2023-03-23T23:24:15.168Z,9.07
2023-03-23T23:26:45.137Z,9.01
2023-03-23T23:29:14.128Z,9.02
2023-03-23T23:31:44.022Z,8.98
2023-03-23T23:34:13.743Z,9.04
2023-03-23T23:36:45.808Z,9.04
2023-03-23T23:39:15.464Z,9.01
2023-03-23T23:41:45.296Z,8.99
2023-03-23T23:44:14.303Z,8.94
2023-03-23T23:46:43.759Z,8.94
2023-03-23T23:49:13.591Z,8.96
2023-03-23T23:51:44.768Z,8.91
2023-03-23T23:54:14.711Z,8.85
2023-03-23T23:56:44.190Z,8.82
2023-03-23T23:59:13.564Z,8.80
